createdAt,value
2019-04-04T00:02:53.905Z,57.08
2019-04-04T00:07:54.788Z,55.24
2019-04-04T00:12:55.683Z,55.97
2019-04-04T00:17:56.555Z,54.75
2019-04-04T00:22:57.435Z,55.41
2019-04-04T00:27:58.434Z,55.98
2019-04-04T00:32:59.352Z,54.65
2019-04-04T00:38:00.226Z,56.72
2019-04-04T00:43:01.108Z,56.76
2019-04-04T00:48:03.047Z,56.54
2019-04-04T00:53:04.608Z,57.07
2019-04-04T00:58:05.488Z,56.83
2019-04-04T01:03:06.363Z,56.14
2019-04-04T01:08:07.563Z,56.45
2019-04-04T01:13:08.577Z,58.48
2019-04-04T01:18:09.556Z,58.77
2019-04-04T01:23:10.435Z,57.52
2019-04-04T01:28:11.312Z,57.86
2019-04-04T01:33:12.387Z,58.28
2019-04-04T01:38:13.303Z,58.58
2019-04-04T01:43:14.176Z,58.39
2019-04-04T01:48:15.066Z,57.07
2019-04-04T01:53:15.961Z,57.06
2019-04-04T01:58:16.851Z,55.92
2019-04-04T02:03:17.715Z,56.48
2019-04-04T02:08:18.690Z,53.86
2019-04-04T02:13:19.564Z,56.29
2019-04-04T02:18:23.357Z,55.30
2019-04-04T02:23:23.858Z,54.91
2019-04-04T02:28:24.711Z,57.67
2019-04-04T02:33:25.588Z,56.68
2019-04-04T02:38:27.972Z,56.98
2019-04-04T02:43:29.356Z,57.23
2019-04-04T02:48:30.225Z,57.59
2019-04-04T02:53:31.120Z,57.34
2019-04-04T02:58:32.012Z,57.28
2019-04-04T03:03:32.871Z,58.14
2019-04-04T03:08:36.670Z,58.40
2019-04-04T03:13:36.630Z,58.65
2019-04-04T03:18:38.147Z,58.46
2019-04-04T03:23:39.277Z,59.37
2019-04-04T03:28:41.575Z,59.93
2019-04-04T03:33:42.545Z,59.14
2019-04-04T03:38:46.030Z,60.16
2019-04-04T03:43:48.917Z,60.97
2019-04-04T03:48:50.891Z,60.90
2019-04-04T03:53:53.633Z,60.66
2019-04-04T03:58:54.934Z,58.61
2019-04-04T04:03:55.945Z,58.60
2019-04-04T04:08:56.861Z,58.25
2019-04-04T04:13:57.734Z,56.91
2019-04-04T04:18:58.980Z,56.67
2019-04-04T04:23:59.837Z,56.18
2019-04-04T04:29:00.717Z,56.45
2019-04-04T04:34:01.862Z,57.10
2019-04-04T04:39:05.161Z,56.16
2019-04-04T04:44:06.562Z,55.50
2019-04-04T04:49:07.663Z,55.81
2019-04-04T04:54:08.571Z,57.00
2019-04-04T04:59:11.113Z,56.09
2019-04-04T05:04:12.227Z,57.04
2019-04-04T05:09:14.074Z,56.58
2019-04-04T05:14:15.569Z,56.04
2019-04-04T05:19:17.083Z,56.52
2019-04-04T05:24:19.239Z,56.04
2019-04-04T05:29:20.090Z,55.13
2019-04-04T05:34:20.970Z,54.57
2019-04-04T05:39:21.824Z,54.46
2019-04-04T05:44:22.802Z,53.66
2019-04-04T05:49:23.701Z,53.80
2019-04-04T05:54:24.552Z,53.56
2019-04-04T05:59:25.430Z,53.26
2019-04-04T06:04:26.326Z,52.91
2019-04-04T06:09:27.279Z,52.36
2019-04-04T06:14:30.002Z,52.03
2019-04-04T06:19:30.952Z,51.40
2019-04-04T06:24:31.819Z,51.21
2019-04-04T06:29:32.795Z,51.13
2019-04-04T06:34:33.692Z,50.08
2019-04-04T06:39:34.569Z,50.53
2019-04-04T06:44:35.465Z,49.66
2019-04-04T06:49:36.334Z,50.15
2019-04-04T06:54:37.229Z,48.97
2019-04-04T06:59:38.148Z,48.13
2019-04-04T07:04:39.124Z,48.71
2019-04-04T07:09:39.997Z,47.13
2019-04-04T07:14:45.937Z,47.46
2019-04-04T07:19:45.848Z,46.45
2019-04-04T07:24:46.425Z,45.27
2019-04-04T07:29:47.303Z,46.06
2019-04-04T07:34:48.180Z,45.38
2019-04-04T07:39:50.182Z,44.43
2019-04-04T07:44:54.400Z,43.91
2019-04-04T07:49:54.999Z,43.62
2019-04-04T07:54:56.445Z,43.87
2019-04-04T07:59:57.323Z,42.40
2019-04-04T08:04:58.208Z,42.65
2019-04-04T08:09:59.102Z,43.18
2019-04-04T08:14:59.948Z,41.97
2019-04-04T08:20:00.821Z,41.55
2019-04-04T08:25:02.347Z,41.85
2019-04-04T08:30:05.644Z,41.09
2019-04-04T08:35:06.635Z,41.36
2019-04-04T08:40:08.104Z,40.61
2019-04-04T08:45:09.468Z,40.70
2019-04-04T08:50:11.328Z,41.26
2019-04-04T08:55:12.333Z,41.16
2019-04-04T09:00:13.505Z,37.09
2019-04-04T09:05:14.376Z,37.52
2019-04-04T09:10:15.357Z,37.11
2019-04-04T09:15:16.332Z,35.47
2019-04-04T09:20:17.212Z,36.97
2019-04-04T09:25:18.185Z,35.12
2019-04-04T09:30:19.462Z,34.91
2019-04-04T09:35:20.439Z,35.18
2019-04-04T09:40:21.344Z,37.17
2019-04-04T09:45:22.316Z,35.71
2019-04-04T09:50:23.183Z,36.45
2019-04-04T09:55:24.180Z,35.82
2019-04-04T10:00:25.300Z,35.53
2019-04-04T10:05:26.284Z,35.83
2019-04-04T10:10:27.157Z,34.59
2019-04-04T10:15:28.028Z,35.54
2019-04-04T10:20:28.907Z,34.31
2019-04-04T10:25:29.875Z,35.04
2019-04-04T10:30:30.751Z,35.94
2019-04-04T10:35:31.672Z,36.65
2019-04-04T10:40:32.570Z,35.80
2019-04-04T10:45:33.439Z,34.39
2019-04-04T10:50:34.422Z,33.35
2019-04-04T10:55:35.412Z,33.53
2019-04-04T11:00:36.426Z,33.26
2019-04-04T11:05:37.319Z,33.19
2019-04-04T11:10:38.201Z,34.67
2019-04-04T11:15:39.074Z,33.33
2019-04-04T11:20:39.953Z,33.29
2019-04-04T11:25:40.824Z,33.71
2019-04-04T11:30:41.728Z,33.04
2019-04-04T11:35:42.611Z,33.26
2019-04-04T11:40:43.677Z,32.65
2019-04-04T11:45:44.751Z,32.55
2019-04-04T11:50:45.708Z,31.90
2019-04-04T11:55:46.626Z,31.26
2019-04-04T12:00:49.498Z,28.87
2019-04-04T12:05:50.473Z,28.15
2019-04-04T12:10:51.348Z,29.07
2019-04-04T12:15:52.327Z,28.71
2019-04-04T12:20:53.196Z,29.85
2019-04-04T12:25:54.504Z,28.13
2019-04-04T12:30:58.481Z,29.60
2019-04-04T12:35:59.867Z,30.26
2019-04-04T12:41:01.077Z,31.75
2019-04-04T12:46:02.826Z,30.92
2019-04-04T12:51:04.125Z,29.13
2019-04-04T12:56:05.561Z,30.02
2019-04-04T13:01:07.283Z,29.03
2019-04-04T13:06:08.856Z,28.90
2019-04-04T13:11:09.728Z,29.41
2019-04-04T13:16:10.607Z,29.45
2019-04-04T13:21:11.475Z,28.90
2019-04-04T13:26:12.387Z,28.59
2019-04-04T13:31:13.343Z,27.62
2019-04-04T13:36:14.228Z,28.86
2019-04-04T13:41:21.758Z,28.24
2019-04-04T13:46:17.884Z,28.41
2019-04-04T13:51:21.118Z,28.14
2019-04-04T13:56:21.587Z,29.01
2019-04-04T14:01:25.272Z,28.49
2019-04-04T14:06:25.251Z,29.09
2019-04-04T14:11:26.119Z,28.90
2019-04-04T14:16:26.998Z,27.57
2019-04-04T14:21:27.977Z,28.83
2019-04-04T14:26:29.336Z,29.61
2019-04-04T14:31:31.780Z,28.64
2019-04-04T14:36:32.668Z,28.77
2019-04-04T14:41:33.637Z,28.35
2019-04-04T14:46:34.509Z,28.44
2019-04-04T14:51:35.389Z,28.40
2019-04-04T14:56:36.265Z,27.60
2019-04-04T15:01:37.169Z,28.89
2019-04-04T15:06:38.249Z,28.60
2019-04-04T15:11:39.117Z,29.48
2019-04-04T15:16:40.010Z,30.06
2019-04-04T15:21:40.880Z,30.20
2019-04-04T15:26:41.768Z,30.55
2019-04-04T15:31:42.728Z,29.85
2019-04-04T15:36:43.621Z,30.07
2019-04-04T15:41:44.704Z,30.71
2019-04-04T15:46:45.809Z,31.58
2019-04-04T15:51:46.700Z,31.58
2019-04-04T15:56:47.625Z,31.75
2019-04-04T16:01:48.516Z,32.11
2019-04-04T16:06:49.817Z,32.18
2019-04-04T16:11:50.677Z,32.89
2019-04-04T16:16:51.552Z,33.42
2019-04-04T16:21:52.437Z,33.27
2019-04-04T16:26:56.587Z,32.82
2019-04-04T16:31:57.559Z,32.28
2019-04-04T16:36:58.437Z,32.22
2019-04-04T16:42:02.579Z,32.17
2019-04-04T16:47:05.147Z,32.00
2019-04-04T16:52:07.349Z,32.51
2019-04-04T16:57:08.765Z,33.25
2019-04-04T17:02:09.660Z,33.40
2019-04-04T17:07:10.533Z,33.59
2019-04-04T17:12:15.199Z,34.76
2019-04-04T17:17:14.473Z,35.68
2019-04-04T17:22:15.339Z,35.84
2019-04-04T17:27:16.208Z,36.15
2019-04-04T17:32:17.508Z,36.83
2019-04-04T17:37:18.927Z,37.70
2019-04-04T17:42:28.947Z,37.95
2019-04-04T17:47:22.848Z,38.38
2019-04-04T17:52:24.291Z,38.87
2019-04-04T17:57:25.712Z,38.01
2019-04-04T18:02:26.675Z,38.41
2019-04-04T18:07:27.528Z,36.75
2019-04-04T18:12:39.617Z,37.62
2019-04-04T18:17:31.200Z,37.99
2019-04-04T18:22:32.072Z,37.77
2019-04-04T18:27:32.945Z,37.74
2019-04-04T18:32:33.812Z,37.59
2019-04-04T18:37:34.685Z,38.04
2019-04-04T18:42:36.244Z,43.10
2019-04-04T18:47:37.105Z,46.57
2019-04-04T18:52:37.987Z,48.57
2019-04-04T18:57:38.871Z,51.24
2019-04-04T19:02:40.052Z,52.41
2019-04-04T19:07:41.027Z,52.03
2019-04-04T19:12:41.928Z,53.54
2019-04-04T19:17:42.957Z,52.54
2019-04-04T19:22:43.993Z,53.03
2019-04-04T19:27:44.972Z,54.26
2019-04-04T19:32:45.870Z,54.43
2019-04-04T19:37:58.929Z,54.37
2019-04-04T19:42:49.667Z,54.65
2019-04-04T19:47:50.661Z,55.04
2019-04-04T19:52:51.835Z,54.63
2019-04-04T19:57:52.705Z,55.28
2019-04-04T20:02:53.610Z,54.16
2019-04-04T20:07:54.605Z,54.05
2019-04-04T20:12:55.544Z,55.17
2019-04-04T20:17:56.420Z,55.66
2019-04-04T20:22:57.410Z,56.07
2019-04-04T20:27:58.309Z,54.00
2019-04-04T20:32:59.193Z,54.94
2019-04-04T20:38:00.061Z,54.36
2019-04-04T20:43:00.947Z,55.97
2019-04-04T20:48:01.821Z,57.00
2019-04-04T20:53:02.901Z,57.04
2019-04-04T20:58:03.887Z,57.30
2019-04-04T21:03:04.880Z,57.42
2019-04-04T21:08:05.778Z,57.71
2019-04-04T21:13:06.648Z,57.42
2019-04-04T21:18:07.526Z,57.97
2019-04-04T21:23:08.411Z,57.53
2019-04-04T21:28:09.285Z,58.44
2019-04-04T21:33:10.162Z,58.37
2019-04-04T21:38:11.017Z,56.63
2019-04-04T21:43:11.891Z,57.63
2019-04-04T21:48:12.768Z,58.31
2019-04-04T21:53:13.648Z,58.40
2019-04-04T21:58:14.523Z,57.12
2019-04-04T22:03:15.408Z,57.34
2019-04-04T22:08:16.289Z,58.51
2019-04-04T22:13:17.181Z,58.11
2019-04-04T22:18:18.051Z,58.27
2019-04-04T22:23:19.007Z,58.72
2019-04-04T22:28:20.234Z,58.78
2019-04-04T22:33:21.108Z,59.15
2019-04-04T22:38:21.954Z,59.08
2019-04-04T22:43:22.815Z,59.78
2019-04-04T22:48:23.698Z,60.89
2019-04-04T22:53:25.066Z,61.78
2019-04-04T22:58:28.441Z,61.90
2019-04-04T23:03:28.920Z,62.01
2019-04-04T23:08:29.787Z,61.55
2019-04-04T23:13:30.668Z,60.62
2019-04-04T23:18:32.021Z,61.95
2019-04-04T23:23:32.977Z,60.52
2019-04-04T23:28:33.964Z,60.46
2019-04-04T23:33:34.829Z,62.01
2019-04-04T23:38:35.802Z,60.11
2019-04-04T23:43:36.691Z,61.12
2019-04-04T23:48:37.587Z,61.33
2019-04-04T23:53:38.476Z,59.78
2019-04-04T23:58:39.371Z,59.78
